Time;durP1;ratioP1;P1;durP2;ratioP2;P2;SDS_P1;SDS_P2;PMS_P1;PMS_P2;Temp;Humidity;BMP_temperature;BMP_pressure;BME280_temperature;BME280_humidity;BME280_pressure;Samples;Min_cycle;Max_cycle;Signal;HPM_P1;HPM_P2
2023/09/25 00:01:41;;;;;;;9.95;6.18;;;;;;;;;;5001751;28;20042;-70
2023/09/25 00:04:07;;;;;;;8.90;6.13;;;;;;;;;;5007071;28;20050;-70
2023/09/25 00:06:33;;;;;;;12.52;6.30;;;;;;;;;;4976068;28;20037;-71
2023/09/25 00:08:59;;;;;;;11.68;6.80;;;;;;;;;;4988808;28;20044;-71
2023/09/25 00:11:26;;;;;;;10.27;5.95;;;;;;;;;;5007350;28;20025;-71
2023/09/25 00:13:52;;;;;;;13.20;6.40;;;;;;;;;;5001957;28;20091;-71
2023/09/25 00:16:18;;;;;;;8.35;6.78;;;;;;;;;;5006916;28;20030;-71
2023/09/25 00:18:44;;;;;;;12.30;6.57;;;;;;;;;;5002323;28;20128;-71
2023/09/25 00:21:10;;;;;;;11.63;6.20;;;;;;;;;;5008425;28;20030;-71
2023/09/25 00:23:38;;;;;;;10.43;6.13;;;;;;;;;;5002055;28;20488;-71
2023/09/25 00:26:04;;;;;;;10.00;6.30;;;;;;;;;;5005498;28;20061;-71
2023/09/25 00:28:31;;;;;;;10.32;5.97;;;;;;;;;;5004988;28;20038;-71
2023/09/25 00:30:57;;;;;;;9.18;6.90;;;;;;;;;;4992371;28;20146;-71
2023/09/25 00:33:23;;;;;;;16.48;6.40;;;;;;;;;;5006421;28;20515;-71
2023/09/25 00:35:49;;;;;;;9.63;6.32;;;;;;;;;;5005101;28;20096;-72
2023/09/25 00:38:15;;;;;;;9.52;6.13;;;;;;;;;;4986312;28;20041;-71
2023/09/25 00:40:43;;;;;;;9.07;6.05;;;;;;;;;;4987596;28;20109;-72
2023/09/25 00:43:11;;;;;;;10.85;6.70;;;;;;;;;;5003704;28;20108;-70
2023/09/25 00:45:38;;;;;;;11.90;6.70;;;;;;;;;;5005174;28;20117;-70
2023/09/25 00:48:04;;;;;;;9.77;6.18;;;;;;;;;;4988278;28;21076;-71
2023/09/25 00:50:31;;;;;;;9.60;6.15;;;;;;;;;;5004025;28;20053;-71
2023/09/25 00:53:03;;;;;;;8.40;5.82;;;;;;;;;;5008215;28;20112;-70
2023/09/25 00:55:30;;;;;;;9.10;5.65;;;;;;;;;;5004786;28;20037;-70
2023/09/25 00:57:57;;;;;;;13.50;6.60;;;;;;;;;;4991364;28;20030;-70
2023/09/25 01:00:24;;;;;;;10.10;5.93;;;;;;;;;;5003325;28;20030;-70
2023/09/25 01:02:50;;;;;;;8.10;6.00;;;;;;;;;;4972012;28;20030;-71
2023/09/25 01:05:16;;;;;;;7.70;6.25;;;;;;;;;;5001947;28;20148;-72
2023/09/25 01:07:42;;;;;;;9.52;6.07;;;;;;;;;;4971137;28;20029;-71
2023/09/25 01:10:15;;;;;;;13.13;6.03;;;;;;;;;;4988153;28;20036;-71
2023/09/25 01:12:41;;;;;;;;;;;;;;;;;;5005967;28;20125;-71
2023/09/25 01:15:08;;;;;;;10.57;5.50;;;;;;;;;;4999929;28;19909;-71
2023/09/25 01:17:34;;;;;;;13.27;5.68;;;;;;;;;;5005129;28;20104;-71
2023/09/25 01:20:01;;;;;;;9.35;5.68;;;;;;;;;;5002407;28;20034;-71
2023/09/25 01:22:28;;;;;;;9.93;5.90;;;;;;;;;;5004969;28;20072;-72
2023/09/25 01:24:54;;;;;;;10.63;5.97;;;;;;;;;;4984171;28;20030;-71
2023/09/25 01:27:21;;;;;;;6.82;5.10;;;;;;;;;;5003815;28;20527;-72
2023/09/25 01:29:47;;;;;;;9.70;5.95;;;;;;;;;;4986658;28;20464;-72
2023/09/25 01:32:13;;;;;;;9.52;5.07;;;;;;;;;;5012695;28;20038;-72
2023/09/25 01:34:39;;;;;;;7.05;4.88;;;;;;;;;;5001941;28;20119;-72
2023/09/25 01:37:05;;;;;;;7.25;5.13;;;;;;;;;;5004834;28;20060;-71
2023/09/25 01:39:32;;;;;;;10.60;5.32;;;;;;;;;;5004363;28;20147;-70
2023/09/25 01:41:58;;;;;;;8.50;5.47;;;;;;;;;;5005693;28;20022;-70
2023/09/25 01:44:26;;;;;;;7.93;5.22;;;;;;;;;;4984131;28;20026;-69
2023/09/25 01:46:52;;;;;;;10.27;5.15;;;;;;;;;;4988090;28;20026;-70
2023/09/25 01:49:19;;;;;;;8.88;5.63;;;;;;;;;;5003332;28;20037;-69
2023/09/25 01:51:45;;;;;;;9.75;6.00;;;;;;;;;;5006045;28;20033;-71
2023/09/25 01:54:11;;;;;;;9.43;5.28;;;;;;;;;;5001753;28;20041;-71
2023/09/25 01:56:37;;;;;;;12.85;5.65;;;;;;;;;;4987468;28;20037;-70
2023/09/25 01:59:03;;;;;;;9.35;4.97;;;;;;;;;;4999071;28;20040;-70
2023/09/25 02:01:30;;;;;;;9.07;5.28;;;;;;;;;;5004538;28;20045;-71
2023/09/25 02:03:56;;;;;;;9.82;6.00;;;;;;;;;;4999537;28;20169;-71
2023/09/25 02:06:23;;;;;;;7.65;5.40;;;;;;;;;;4984913;28;20030;-71
2023/09/25 02:08:49;;;;;;;9.38;5.68;;;;;;;;;;5003626;28;20026;-71
2023/09/25 02:11:15;;;;;;;12.15;5.30;;;;;;;;;;4986933;28;20049;-71
2023/09/25 02:13:42;;;;;;;12.23;5.18;;;;;;;;;;5002445;28;20056;-71
2023/09/25 02:16:09;;;;;;;10.27;6.05;;;;;;;;;;5000579;28;20026;-70
2023/09/25 02:18:35;;;;;;;8.80;5.53;;;;;;;;;;5001147;28;20029;-70
2023/09/25 02:21:02;;;;;;;8.30;5.18;;;;;;;;;;4983950;28;20349;-70
2023/09/25 02:23:28;;;;;;;8.82;5.15;;;;;;;;;;4998736;28;20026;-71
2023/09/25 02:25:55;;;;;;;8.27;5.63;;;;;;;;;;5004129;28;20110;-71
2023/09/25 02:28:21;;;;;;;9.63;5.38;;;;;;;;;;5006994;28;20038;-71
2023/09/25 02:30:47;;;;;;;9.88;5.45;;;;;;;;;;5003229;28;20044;-71
2023/09/25 02:33:14;;;;;;;10.35;5.22;;;;;;;;;;5006439;28;20045;-70
2023/09/25 02:35:40;;;;;;;7.30;5.28;;;;;;;;;;5005521;28;20179;-70
2023/09/25 02:38:06;;;;;;;10.20;5.50;;;;;;;;;;5004013;28;20042;-70
2023/09/25 02:40:33;;;;;;;10.18;5.05;;;;;;;;;;5000762;28;20124;-70
2023/09/25 02:43:00;;;;;;;17.02;5.60;;;;;;;;;;5000434;28;20029;-71
2023/09/25 02:45:26;;;;;;;13.23;5.32;;;;;;;;;;5001839;28;20030;-71
2023/09/25 02:47:52;;;;;;;10.98;5.65;;;;;;;;;;5004089;28;20025;-71
2023/09/25 02:50:19;;;;;;;11.13;5.63;;;;;;;;;;5003159;28;20447;-72
2023/09/25 02:52:45;;;;;;;15.73;6.25;;;;;;;;;;4988288;28;20053;-71
2023/09/25 02:55:12;;;;;;;9.40;5.38;;;;;;;;;;5002362;28;20168;-71
2023/09/25 02:57:38;;;;;;;7.85;5.43;;;;;;;;;;5001813;28;20041;-70
2023/09/25 03:00:10;;;;;;;8.88;5.47;;;;;;;;;;5001186;28;20099;-71
2023/09/25 03:02:36;;;;;;;9.27;5.32;;;;;;;;;;5010589;28;20034;-71
2023/09/25 03:05:04;;;;;;;8.60;5.65;;;;;;;;;;5001744;28;20053;-71
2023/09/25 03:07:30;;;;;;;20.95;6.65;;;;;;;;;;4994858;28;20156;-71
2023/09/25 03:09:56;;;;;;;7.68;5.30;;;;;;;;;;5000228;28;20079;-70
2023/09/25 03:12:23;;;;;;;14.20;5.80;;;;;;;;;;5003928;28;20111;-71
2023/09/25 03:14:49;;;;;;;10.88;5.25;;;;;;;;;;5002360;28;20038;-70
2023/09/25 03:17:16;;;;;;;9.23;5.10;;;;;;;;;;4984773;28;20030;-70
2023/09/25 03:19:42;;;;;;;8.85;5.65;;;;;;;;;;4999002;28;20057;-71
2023/09/25 03:22:08;;;;;;;10.02;6.10;;;;;;;;;;5004395;28;20026;-70
2023/09/25 03:24:35;;;;;;;7.25;5.28;;;;;;;;;;4985536;28;20042;-71
2023/09/25 03:27:01;;;;;;;9.07;5.35;;;;;;;;;;5008141;28;20117;-71
2023/09/25 03:29:27;;;;;;;8.45;5.70;;;;;;;;;;5006523;28;20018;-71
2023/09/25 03:31:54;;;;;;;8.63;5.00;;;;;;;;;;5008795;28;20689;-71
2023/09/25 03:34:20;;;;;;;9.57;5.10;;;;;;;;;;5003930;28;20506;-71
2023/09/25 03:36:49;;;;;;;9.40;4.85;;;;;;;;;;5007853;28;20578;-70
2023/09/25 03:39:16;;;;;;;8.75;5.47;;;;;;;;;;5009816;28;20030;-71
2023/09/25 03:41:42;;;;;;;8.65;5.32;;;;;;;;;;5008701;28;20038;-71
2023/09/25 03:44:08;;;;;;;12.02;6.00;;;;;;;;;;5004752;28;20026;-71
2023/09/25 03:46:34;;;;;;;9.68;4.93;;;;;;;;;;5005722;28;20452;-71
2023/09/25 03:49:05;;;;;;;9.68;5.90;;;;;;;;;;5005254;28;20030;-71
2023/09/25 03:51:32;;;;;;;10.38;5.43;;;;;;;;;;5019437;28;20022;-71
2023/09/25 03:53:59;;;;;;;9.07;5.20;;;;;;;;;;5007618;28;20034;-71
2023/09/25 03:56:26;;;;;;;10.27;4.75;;;;;;;;;;5006714;28;20476;-71
2023/09/25 03:58:52;;;;;;;11.00;5.55;;;;;;;;;;4986597;28;20030;-71
2023/09/25 04:01:18;;;;;;;8.13;5.03;;;;;;;;;;5002090;28;20026;-72
2023/09/25 04:03:45;;;;;;;11.82;5.63;;;;;;;;;;5005341;28;20038;-72
2023/09/25 04:06:11;;;;;;;8.95;5.43;;;;;;;;;;5005704;28;20560;-72
2023/09/25 04:08:37;;;;;;;8.07;5.82;;;;;;;;;;5001656;28;20038;-72
2023/09/25 04:11:04;;;;;;;10.63;4.88;;;;;;;;;;4987694;28;20484;-70
2023/09/25 04:13:31;;;;;;;7.15;5.05;;;;;;;;;;5006803;28;20179;-71
2023/09/25 04:15:57;;;;;;;14.73;6.10;;;;;;;;;;5007863;28;20041;-72
2023/09/25 04:18:23;;;;;;;7.72;5.10;;;;;;;;;;5004816;28;20125;-70
2023/09/25 04:20:50;;;;;;;8.38;5.15;;;;;;;;;;5005627;28;20113;-71
2023/09/25 04:23:16;;;;;;;9.82;5.38;;;;;;;;;;5007209;28;20030;-71
2023/09/25 04:25:42;;;;;;;8.77;5.60;;;;;;;;;;5004909;28;20132;-71
2023/09/25 04:28:11;;;;;;;9.50;5.65;;;;;;;;;;4991785;28;20608;-71
2023/09/25 04:30:38;;;;;;;7.95;4.80;;;;;;;;;;5004596;28;20077;-71
2023/09/25 04:33:04;;;;;;;9.27;4.85;;;;;;;;;;5006932;28;20026;-71
2023/09/25 04:35:30;;;;;;;10.77;6.45;;;;;;;;;;5006234;28;20419;-71
2023/09/25 04:37:56;;;;;;;10.82;5.40;;;;;;;;;;5007182;28;20037;-72
2023/09/25 04:40:22;;;;;;;10.25;5.60;;;;;;;;;;5005292;28;20022;-71
2023/09/25 04:42:49;;;;;;;7.93;5.70;;;;;;;;;;4987067;28;20444;-71
2023/09/25 04:45:18;;;;;;;7.25;5.05;;;;;;;;;;5001821;28;20487;-71
2023/09/25 04:47:45;;;;;;;12.20;5.30;;;;;;;;;;5003731;28;20037;-71
2023/09/25 04:50:11;;;;;;;14.65;5.20;;;;;;;;;;5006334;28;20125;-71
2023/09/25 04:52:40;;;;;;;8.93;5.25;;;;;;;;;;5006072;28;20027;-71
2023/09/25 04:55:07;;;;;;;9.90;5.70;;;;;;;;;;5003078;28;20089;-72
2023/09/25 04:57:33;;;;;;;9.75;4.95;;;;;;;;;;4985842;28;20057;-71
2023/09/25 05:00:05;;;;;;;13.75;6.05;;;;;;;;;;5000872;28;20031;-71
2023/09/25 05:02:31;;;;;;;6.43;4.85;;;;;;;;;;5005373;28;20030;-71
2023/09/25 05:04:57;;;;;;;9.77;5.00;;;;;;;;;;4968280;28;20042;-71
2023/09/25 05:07:23;;;;;;;15.05;5.50;;;;;;;;;;5007398;28;20034;-70
2023/09/25 05:09:49;;;;;;;8.57;5.30;;;;;;;;;;5005838;28;20483;-71
2023/09/25 05:12:15;;;;;;;9.13;5.03;;;;;;;;;;5009517;28;20026;-71
2023/09/25 05:14:42;;;;;;;12.07;4.75;;;;;;;;;;5006792;28;20038;-70
2023/09/25 05:17:08;;;;;;;10.90;5.20;;;;;;;;;;5011366;28;20029;-72
2023/09/25 05:19:34;;;;;;;13.20;5.28;;;;;;;;;;5007636;28;20125;-71
2023/09/25 05:22:00;;;;;;;6.88;4.95;;;;;;;;;;4990644;28;20125;-72
2023/09/25 05:24:26;;;;;;;9.15;4.72;;;;;;;;;;4984856;28;20121;-72
2023/09/25 05:26:52;;;;;;;13.25;5.80;;;;;;;;;;5010042;28;20034;-72
2023/09/25 05:29:19;;;;;;;8.90;4.95;;;;;;;;;;4996696;28;20116;-72
2023/09/25 05:31:45;;;;;;;7.57;4.55;;;;;;;;;;5002762;28;20033;-72
2023/09/25 05:34:11;;;;;;;10.20;4.88;;;;;;;;;;4982125;28;20403;-72
2023/09/25 05:36:37;;;;;;;6.60;4.63;;;;;;;;;;5000979;28;20113;-71
2023/09/25 05:39:04;;;;;;;8.88;4.38;;;;;;;;;;4997313;28;20038;-71
2023/09/25 05:41:30;;;;;;;8.25;4.80;;;;;;;;;;4982228;28;20502;-70
2023/09/25 05:43:56;;;;;;;7.82;4.80;;;;;;;;;;4998599;28;20040;-70
2023/09/25 05:46:23;;;;;;;9.35;4.80;;;;;;;;;;5005521;28;20041;-73
2023/09/25 05:48:49;;;;;;;6.90;4.65;;;;;;;;;;4999252;28;20077;-71
2023/09/25 05:51:15;;;;;;;9.90;4.65;;;;;;;;;;5002629;28;20022;-71
2023/09/25 05:53:41;;;;;;;7.00;4.35;;;;;;;;;;4999928;28;20033;-72
2023/09/25 05:56:08;;;;;;;7.57;4.78;;;;;;;;;;4997463;28;20050;-71
2023/09/25 05:58:35;;;;;;;10.43;4.63;;;;;;;;;;5000292;28;20075;-72
2023/09/25 06:01:01;;;;;;;8.00;4.45;;;;;;;;;;5004118;28;20542;-71
2023/09/25 06:03:28;;;;;;;10.13;4.35;;;;;;;;;;4994753;28;20441;-71
2023/09/25 06:05:54;;;;;;;7.13;4.50;;;;;;;;;;4988442;28;20594;-70
2023/09/25 06:08:20;;;;;;;21.25;13.13;;;;;;;;;;4996899;28;20045;-71
2023/09/25 06:10:47;;;;;;;7.05;3.85;;;;;;;;;;4995570;28;20034;-70
2023/09/25 06:13:13;;;;;;;11.57;5.00;;;;;;;;;;5000103;28;20052;-72
2023/09/25 06:15:43;;;;;;;12.18;4.38;;;;;;;;;;4996279;28;20169;-71
2023/09/25 06:18:09;;;;;;;6.75;4.50;;;;;;;;;;4997368;28;20395;-71
2023/09/25 06:20:43;;;;;;;7.95;4.80;;;;;;;;;;4996858;28;20100;-71
2023/09/25 06:23:09;;;;;;;9.07;4.38;;;;;;;;;;4996916;28;20057;-70
2023/09/25 06:25:37;;;;;;;7.22;3.80;;;;;;;;;;4987986;28;20045;-71
2023/09/25 06:28:05;;;;;;;8.40;3.95;;;;;;;;;;5003894;28;20034;-71
2023/09/25 06:30:31;;;;;;;6.28;3.80;;;;;;;;;;4997518;28;20068;-72
2023/09/25 06:32:57;;;;;;;13.80;4.20;;;;;;;;;;5000829;28;20170;-70
2023/09/25 06:35:23;;;;;;;12.85;4.55;;;;;;;;;;4999341;28;20056;-71
2023/09/25 06:37:49;;;;;;;9.35;3.72;;;;;;;;;;5000692;28;20045;-71
2023/09/25 06:40:16;;;;;;;9.68;3.78;;;;;;;;;;4982164;28;20034;-71
2023/09/25 06:42:43;;;;;;;7.72;3.70;;;;;;;;;;4999875;28;20050;-70
2023/09/25 06:45:09;;;;;;;5.55;3.67;;;;;;;;;;4980409;28;20064;-71
2023/09/25 06:47:35;;;;;;;6.28;3.50;;;;;;;;;;5001288;28;20181;-70
2023/09/25 06:50:01;;;;;;;8.90;4.00;;;;;;;;;;5000022;28;20060;-72
2023/09/25 06:52:27;;;;;;;10.70;3.55;;;;;;;;;;5002020;28;20029;-71
2023/09/25 06:54:54;;;;;;;5.93;3.20;;;;;;;;;;4999270;28;20042;-71
2023/09/25 06:57:21;;;;;;;7.72;3.58;;;;;;;;;;5001562;28;20037;-71
2023/09/25 06:59:47;;;;;;;7.93;3.78;;;;;;;;;;4999447;28;20562;-70
2023/09/25 07:02:13;;;;;;;6.82;3.88;;;;;;;;;;5001424;28;20030;-71
2023/09/25 07:04:39;;;;;;;6.72;3.08;;;;;;;;;;4999032;28;20054;-70
2023/09/25 07:07:06;;;;;;;6.47;3.17;;;;;;;;;;4985506;28;20519;-71
2023/09/25 07:09:32;;;;;;;6.35;3.55;;;;;;;;;;5000729;28;20072;-70
2023/09/25 07:11:59;;;;;;;7.32;3.50;;;;;;;;;;5003158;28;20038;-71
2023/09/25 07:14:25;;;;;;;5.78;3.20;;;;;;;;;;5002627;28;20104;-71
2023/09/25 07:16:52;;;;;;;8.77;3.47;;;;;;;;;;5000073;28;20040;-71
2023/09/25 07:19:18;;;;;;;6.78;3.08;;;;;;;;;;4996917;28;20038;-70
2023/09/25 07:21:44;;;;;;;8.43;3.80;;;;;;;;;;5004220;28;20463;-71
2023/09/25 07:24:10;;;;;;;6.13;3.15;;;;;;;;;;4983886;28;20048;-70
2023/09/25 07:26:36;;;;;;;8.07;3.28;;;;;;;;;;4982836;28;20109;-71
2023/09/25 07:29:05;;;;;;;7.40;3.03;;;;;;;;;;4999650;28;20033;-71
2023/09/25 07:31:32;;;;;;;6.05;2.90;;;;;;;;;;5003345;28;20184;-70
2023/09/25 07:33:58;;;;;;;6.72;2.90;;;;;;;;;;5000017;28;20098;-69
2023/09/25 07:36:25;;;;;;;7.25;2.90;;;;;;;;;;4998398;28;20038;-70
2023/09/25 07:38:51;;;;;;;6.93;2.75;;;;;;;;;;4999842;28;20069;-70
2023/09/25 07:41:18;;;;;;;8.00;2.92;;;;;;;;;;5002129;28;20254;-71
2023/09/25 07:43:47;;;;;;;8.52;3.20;;;;;;;;;;4998025;28;20065;-71
2023/09/25 07:46:13;;;;;;;5.95;2.63;;;;;;;;;;4997790;28;20384;-70
2023/09/25 07:48:39;;;;;;;5.03;2.80;;;;;;;;;;4999409;28;20080;-70
2023/09/25 07:51:07;;;;;;;4.65;2.70;;;;;;;;;;5000858;28;20029;-70
2023/09/25 07:53:39;;;;;;;7.75;3.95;;;;;;;;;;4998738;28;20070;-71
2023/09/25 07:56:06;;;;;;;9.27;3.05;;;;;;;;;;5000436;28;20160;-71
2023/09/25 07:58:32;;;;;;;5.50;2.85;;;;;;;;;;4981293;28;20407;-70
2023/09/25 08:01:07;;;;;;;7.75;2.60;;;;;;;;;;5002259;28;20061;-70
2023/09/25 08:03:34;;;;;;;7.10;3.15;;;;;;;;;;5000680;28;20042;-71
2023/09/25 08:06:05;;;;;;;6.18;2.75;;;;;;;;;;5002623;28;20484;-71
2023/09/25 08:08:31;;;;;;;6.10;2.53;;;;;;;;;;5000809;28;20034;-72
2023/09/25 08:10:57;;;;;;;6.75;2.88;;;;;;;;;;5002478;28;20044;-71
2023/09/25 08:13:24;;;;;;;7.78;3.00;;;;;;;;;;5006638;28;20065;-70
2023/09/25 08:15:51;;;;;;;5.72;2.88;;;;;;;;;;5003044;28;20468;-71
2023/09/25 08:18:17;;;;;;;5.32;2.97;;;;;;;;;;5002934;28;20145;-71
2023/09/25 08:20:43;;;;;;;7.90;2.90;;;;;;;;;;4989284;28;20357;-71
2023/09/25 08:23:10;;;;;;;6.47;3.45;;;;;;;;;;5004855;28;20045;-71
2023/09/25 08:25:36;;;;;;;6.22;2.70;;;;;;;;;;5006056;28;20053;-71
2023/09/25 08:28:02;;;;;;;5.57;2.67;;;;;;;;;;5006068;28;20454;-71
2023/09/25 08:30:28;;;;;;;6.38;2.75;;;;;;;;;;5002798;28;20030;-71
2023/09/25 08:32:56;;;;;;;9.93;2.63;;;;;;;;;;5005400;28;20029;-71
2023/09/25 08:35:22;;;;;;;8.25;2.80;;;;;;;;;;5003511;28;20042;-72
2023/09/25 08:37:49;;;;;;;4.55;2.55;;;;;;;;;;5005006;28;20046;-70
2023/09/25 08:40:15;;;;;;;9.35;3.00;;;;;;;;;;5004893;28;20033;-69
2023/09/25 08:42:42;;;;;;;6.60;2.50;;;;;;;;;;5005295;28;20049;-70
2023/09/25 08:45:09;;;;;;;5.88;2.95;;;;;;;;;;5005920;28;20034;-70
2023/09/25 08:47:36;;;;;;;4.88;2.60;;;;;;;;;;5003576;28;20038;-70
2023/09/25 08:50:03;;;;;;;7.40;3.67;;;;;;;;;;5004606;28;20026;-70
2023/09/25 08:52:31;;;;;;;9.32;2.90;;;;;;;;;;5005399;28;20152;-70
2023/09/25 08:54:59;;;;;;;7.13;2.75;;;;;;;;;;5003094;28;20249;-71
2023/09/25 08:57:25;;;;;;;5.47;2.72;;;;;;;;;;5004774;28;20038;-71
2023/09/25 08:59:51;;;;;;;9.13;2.78;;;;;;;;;;5003860;28;20463;-70
2023/09/25 09:02:18;;;;;;;5.65;2.60;;;;;;;;;;5004597;28;20041;-70
2023/09/25 09:04:45;;;;;;;7.43;2.67;;;;;;;;;;5007472;28;20085;-71
2023/09/25 09:07:11;;;;;;;6.78;3.13;;;;;;;;;;5007932;28;20147;-70
2023/09/25 09:09:39;;;;;;;5.97;2.95;;;;;;;;;;5005062;28;20069;-71
2023/09/25 09:12:07;;;;;;;5.38;2.58;;;;;;;;;;5002546;28;20025;-70
2023/09/25 09:14:34;;;;;;;5.30;2.40;;;;;;;;;;5007666;28;20030;-71
2023/09/25 09:17:00;;;;;;;6.30;2.70;;;;;;;;;;5010233;28;20377;-71
2023/09/25 09:19:26;;;;;;;10.45;2.80;;;;;;;;;;5010593;28;20120;-72
2023/09/25 09:22:06;;;;;;;6.20;2.70;;;;;;;;;;5006926;28;20436;-71
2023/09/25 09:24:35;;;;;;;6.25;2.55;;;;;;;;;;4995658;28;20100;-69
2023/09/25 09:27:02;;;;;;;9.60;2.83;;;;;;;;;;5007605;28;20117;-71
2023/09/25 09:29:28;;;;;;;5.60;2.42;;;;;;;;;;5004535;28;20038;-71
2023/09/25 09:31:58;;;;;;;5.07;2.67;;;;;;;;;;5007222;28;20030;-71
2023/09/25 09:34:24;;;;;;;6.97;2.33;;;;;;;;;;5008785;28;20038;-71
2023/09/25 09:36:51;;;;;;;5.32;2.70;;;;;;;;;;5004283;28;20041;-71
2023/09/25 09:39:21;;;;;;;5.45;2.97;;;;;;;;;;5008652;28;20034;-71
2023/09/25 09:41:48;;;;;;;5.35;2.20;;;;;;;;;;5006314;28;20436;-71
2023/09/25 09:44:15;;;;;;;6.35;2.35;;;;;;;;;;5003388;28;20029;-71
2023/09/25 09:46:42;;;;;;;6.18;2.85;;;;;;;;;;5007287;28;20029;-72
2023/09/25 09:49:10;;;;;;;6.55;2.90;;;;;;;;;;5001969;28;20026;-71
2023/09/25 09:51:39;;;;;;;5.70;2.80;;;;;;;;;;5003766;28;20475;-72
2023/09/25 09:54:05;;;;;;;8.32;2.70;;;;;;;;;;5005163;28;20038;-71
2023/09/25 09:56:32;;;;;;;6.85;2.63;;;;;;;;;;5006723;28;20030;-71
2023/09/25 09:58:59;;;;;;;5.38;2.88;;;;;;;;;;5003973;28;20495;-70
2023/09/25 10:01:25;;;;;;;7.85;2.83;;;;;;;;;;5006539;28;20018;-72
2023/09/25 10:03:53;;;;;;;7.72;2.70;;;;;;;;;;5005313;28;20030;-71
2023/09/25 10:06:24;;;;;;;7.38;2.50;;;;;;;;;;5005307;28;20037;-72
2023/09/25 10:09:00;;;;;;;5.95;2.80;;;;;;;;;;5007774;28;20395;-71
2023/09/25 10:11:27;;;;;;;5.10;2.97;;;;;;;;;;5005219;28;20105;-71
2023/09/25 10:14:00;;;;;;;8.85;2.80;;;;;;;;;;5008436;28;20450;-71
2023/09/25 10:16:28;;;;;;;10.23;3.40;;;;;;;;;;5006503;28;20018;-72
2023/09/25 10:18:55;;;;;;;8.57;2.97;;;;;;;;;;4997266;28;20045;-72
2023/09/25 10:21:22;;;;;;;7.53;3.00;;;;;;;;;;5005904;28;20747;-71
2023/09/25 10:23:49;;;;;;;7.82;2.80;;;;;;;;;;5009621;28;20040;-71
2023/09/25 10:26:16;;;;;;;8.57;2.60;;;;;;;;;;5001528;28;20046;-71
2023/09/25 10:28:43;;;;;;;7.05;2.80;;;;;;;;;;4999517;28;20050;-71
2023/09/25 10:31:19;;;;;;;5.18;2.83;;;;;;;;;;5005505;28;20037;-71
2023/09/25 10:33:57;;;;;;;6.80;2.97;;;;;;;;;;5009638;28;20195;-72
2023/09/25 10:36:35;;;;;;;6.90;3.00;;;;;;;;;;4990684;28;20037;-70
2023/09/25 10:39:02;;;;;;;6.45;3.00;;;;;;;;;;4988372;28;20023;-70
2023/09/25 10:41:28;;;;;;;7.30;2.85;;;;;;;;;;4981880;28;20119;-71
2023/09/25 10:43:57;;;;;;;7.22;2.83;;;;;;;;;;4989125;28;20038;-71
2023/09/25 10:46:23;;;;;;;5.70;2.72;;;;;;;;;;5005542;28;20483;-70
2023/09/25 10:48:49;;;;;;;5.95;3.03;;;;;;;;;;5006443;28;20104;-72
2023/09/25 10:51:16;;;;;;;6.45;3.35;;;;;;;;;;4992666;28;20475;-72
2023/09/25 10:53:43;;;;;;;8.93;3.13;;;;;;;;;;4989072;28;20029;-72
2023/09/25 10:56:11;;;;;;;6.80;2.80;;;;;;;;;;5003853;28;20025;-71
2023/09/25 10:58:37;;;;;;;6.55;2.90;;;;;;;;;;5008405;28;20458;-72
2023/09/25 11:01:04;;;;;;;5.30;3.05;;;;;;;;;;5007411;28;20026;-71
2023/09/25 11:03:31;;;;;;;7.38;3.03;;;;;;;;;;5008835;28;20084;-72
2023/09/25 11:06:00;;;;;;;6.22;3.55;;;;;;;;;;5005433;28;20067;-71
2023/09/25 11:08:27;;;;;;;7.50;3.28;;;;;;;;;;5005173;28;20054;-72
2023/09/25 11:10:53;;;;;;;6.65;2.90;;;;;;;;;;5007992;28;20112;-71
2023/09/25 11:13:21;;;;;;;8.27;3.28;;;;;;;;;;5005652;28;20124;-72
2023/09/25 11:15:47;;;;;;;5.13;3.20;;;;;;;;;;5004164;28;20030;-71
2023/09/25 11:18:13;;;;;;;7.95;3.10;;;;;;;;;;4998429;28;20144;-71
2023/09/25 11:20:43;;;;;;;6.85;2.92;;;;;;;;;;5007176;28;20042;-72
2023/09/25 11:23:10;;;;;;;7.63;3.50;;;;;;;;;;5003444;28;20542;-71
2023/09/25 11:25:50;;;;;;;8.90;3.17;;;;;;;;;;5002237;28;20307;-71
2023/09/25 11:28:20;;;;;;;7.75;3.15;;;;;;;;;;5002075;28;20022;-71
2023/09/25 11:30:47;;;;;;;8.10;3.00;;;;;;;;;;5003517;28;20072;-71
2023/09/25 11:33:18;;;;;;;7.05;2.95;;;;;;;;;;5006485;28;20036;-71
2023/09/25 11:35:45;;;;;;;10.98;3.05;;;;;;;;;;5000551;28;20033;-72
2023/09/25 11:38:17;;;;;;;11.27;3.33;;;;;;;;;;5003367;28;20036;-71
2023/09/25 11:40:44;;;;;;;8.60;3.00;;;;;;;;;;5005998;28;20037;-71
2023/09/25 11:43:11;;;;;;;14.90;3.40;;;;;;;;;;5005947;28;20029;-71
2023/09/25 11:45:37;;;;;;;5.93;2.60;;;;;;;;;;5005142;28;20038;-71
2023/09/25 11:48:04;;;;;;;13.10;3.03;;;;;;;;;;5011216;28;20049;-72
2023/09/25 11:50:30;;;;;;;6.20;3.00;;;;;;;;;;5009554;28;20379;-70
2023/09/25 11:52:56;;;;;;;9.50;3.20;;;;;;;;;;5009543;28;20367;-70
2023/09/25 11:55:23;;;;;;;8.52;3.22;;;;;;;;;;5007005;28;20295;-69
2023/09/25 11:57:49;;;;;;;7.22;3.38;;;;;;;;;;5011448;28;20041;-72
2023/09/25 12:00:18;;;;;;;4.90;2.88;;;;;;;;;;5007748;28;20056;-70
2023/09/25 12:02:48;;;;;;;6.18;2.95;;;;;;;;;;5008712;28;20030;-70
2023/09/25 12:05:14;;;;;;;9.50;2.97;;;;;;;;;;5008760;28;20066;-70
2023/09/25 12:07:41;;;;;;;6.38;2.78;;;;;;;;;;5010786;28;20109;-71
2023/09/25 12:10:07;;;;;;;13.20;3.72;;;;;;;;;;5010023;28;20157;-72
2023/09/25 12:12:35;;;;;;;12.18;3.40;;;;;;;;;;5009709;28;20018;-70
2023/09/25 12:15:03;;;;;;;9.20;3.33;;;;;;;;;;5008383;28;20093;-71
2023/09/25 12:17:30;;;;;;;7.88;2.97;;;;;;;;;;5011830;28;20054;-71
2023/09/25 12:20:07;;;;;;;6.50;3.08;;;;;;;;;;5009820;28;20026;-71
2023/09/25 12:22:34;;;;;;;7.97;3.25;;;;;;;;;;5017305;28;20034;-71
2023/09/25 12:25:00;;;;;;;6.10;2.75;;;;;;;;;;5027913;28;20470;-71
2023/09/25 12:27:27;;;;;;;8.52;3.05;;;;;;;;;;5011908;28;20040;-71
2023/09/25 12:29:53;;;;;;;8.15;3.17;;;;;;;;;;5007748;28;20697;-72
2023/09/25 12:32:19;;;;;;;4.70;2.97;;;;;;;;;;4990214;28;20112;-71
2023/09/25 12:34:45;;;;;;;8.38;2.80;;;;;;;;;;4978233;28;20101;-70
2023/09/25 12:37:11;;;;;;;8.52;3.20;;;;;;;;;;5004838;28;20503;-72
2023/09/25 12:39:38;;;;;;;8.18;3.50;;;;;;;;;;5004500;28;20034;-72
2023/09/25 12:42:04;;;;;;;7.00;2.80;;;;;;;;;;4998928;28;20125;-71
2023/09/25 12:44:30;;;;;;;6.28;3.28;;;;;;;;;;5008754;28;20046;-70
2023/09/25 12:46:56;;;;;;;39.28;4.80;;;;;;;;;;5004509;28;20036;-72
2023/09/25 12:49:22;;;;;;;11.40;3.35;;;;;;;;;;4987965;28;20128;-70
2023/09/25 12:51:50;;;;;;;6.30;3.47;;;;;;;;;;5004272;28;20032;-70
2023/09/25 12:54:16;;;;;;;6.18;3.28;;;;;;;;;;4997153;28;20101;-70
2023/09/25 12:56:43;;;;;;;9.27;3.28;;;;;;;;;;4969225;28;20034;-72
2023/09/25 12:59:09;;;;;;;9.00;3.25;;;;;;;;;;4987997;28;20144;-71
2023/09/25 13:01:35;;;;;;;16.88;3.60;;;;;;;;;;5004563;28;20137;-71
2023/09/25 13:04:02;;;;;;;12.23;3.17;;;;;;;;;;5004128;28;20105;-71
2023/09/25 13:06:31;;;;;;;13.93;3.40;;;;;;;;;;5004143;28;20101;-71
2023/09/25 13:08:57;;;;;;;10.25;3.20;;;;;;;;;;5002779;28;20037;-71
2023/09/25 13:11:23;;;;;;;6.47;3.42;;;;;;;;;;5002911;28;20491;-72
2023/09/25 13:13:50;;;;;;;8.18;3.40;;;;;;;;;;5005442;28;20083;-71
2023/09/25 13:16:16;;;;;;;8.02;3.22;;;;;;;;;;5004829;28;20022;-72
2023/09/25 13:18:42;;;;;;;7.68;3.42;;;;;;;;;;5003845;28;20034;-71
2023/09/25 13:21:08;;;;;;;8.02;3.22;;;;;;;;;;5005540;28;20026;-71
2023/09/25 13:23:35;;;;;;;6.47;3.38;;;;;;;;;;5001742;28;20133;-71
2023/09/25 13:26:03;;;;;;;10.15;3.47;;;;;;;;;;5002220;28;20022;-71
2023/09/25 13:28:29;;;;;;;12.55;3.58;;;;;;;;;;5003615;28;20030;-71
2023/09/25 13:30:55;;;;;;;7.65;3.53;;;;;;;;;;4986193;28;20034;-72
2023/09/25 13:33:21;;;;;;;6.82;2.95;;;;;;;;;;5006676;28;20748;-72
2023/09/25 13:35:48;;;;;;;10.63;3.50;;;;;;;;;;4989928;28;20045;-72
2023/09/25 13:38:14;;;;;;;5.75;3.15;;;;;;;;;;5005056;28;20034;-71
2023/09/25 13:40:40;;;;;;;7.55;3.35;;;;;;;;;;5003639;28;20045;-71
2023/09/25 13:43:06;;;;;;;7.78;3.78;;;;;;;;;;5005357;28;20108;-71
2023/09/25 13:45:33;;;;;;;10.05;3.60;;;;;;;;;;4999434;28;20117;-71
2023/09/25 13:47:59;;;;;;;13.82;3.60;;;;;;;;;;5003294;28;20034;-71
2023/09/25 13:50:25;;;;;;;9.30;3.58;;;;;;;;;;4985849;28;20034;-70
2023/09/25 13:52:51;;;;;;;7.35;3.97;;;;;;;;;;5002007;28;20034;-70
2023/09/25 13:55:18;;;;;;;8.20;3.75;;;;;;;;;;5001991;28;20049;-70
2023/09/25 13:57:44;;;;;;;12.18;4.10;;;;;;;;;;5006062;28;20060;-71
2023/09/25 14:00:11;;;;;;;9.07;4.00;;;;;;;;;;5004893;28;20025;-70
2023/09/25 14:02:43;;;;;;;8.95;4.03;;;;;;;;;;5001332;28;20792;-71
2023/09/25 14:05:11;;;;;;;8.43;3.90;;;;;;;;;;5000801;28;20060;-69
2023/09/25 14:07:37;;;;;;;10.20;3.63;;;;;;;;;;5003156;28;20045;-71
2023/09/25 14:10:03;;;;;;;8.05;4.10;;;;;;;;;;5002476;28;20569;-70
2023/09/25 14:12:29;;;;;;;11.20;3.75;;;;;;;;;;5004179;28;20029;-71
2023/09/25 14:14:57;;;;;;;7.50;3.53;;;;;;;;;;5000228;28;20130;-70
2023/09/25 14:17:23;;;;;;;10.75;4.13;;;;;;;;;;5004357;28;20073;-70
2023/09/25 14:19:49;;;;;;;8.68;3.65;;;;;;;;;;4999397;28;20030;-70
2023/09/25 14:22:15;;;;;;;13.93;3.78;;;;;;;;;;5008475;28;20448;-72
2023/09/25 14:24:41;;;;;;;10.05;3.30;;;;;;;;;;4997833;28;20042;-72
2023/09/25 14:27:08;;;;;;;9.95;3.58;;;;;;;;;;5001759;28;20030;-72
2023/09/25 14:29:34;;;;;;;10.90;3.95;;;;;;;;;;5001586;28;20038;-72
2023/09/25 14:32:00;;;;;;;8.27;3.53;;;;;;;;;;5013601;28;20038;-71
2023/09/25 14:34:29;;;;;;;7.07;3.55;;;;;;;;;;5006986;28;20546;-72
2023/09/25 14:36:55;;;;;;;9.00;3.47;;;;;;;;;;5001656;28;20030;-72
2023/09/25 14:39:28;;;;;;;10.10;3.53;;;;;;;;;;5001458;28;20479;-71